<?xml version="1.0" encoding="UTF-8" standalone="no" ?>
<gpx xmlns="http://www.topografix.com/GPX/1/1" xmlns:xsi="http://www.w3.org/2001/XMLSchema-instance" xsi:schemaLocation="http://www.topografix.com/GPX/1/1 http://www.topografix.com/GPX/1/1/gpx.xsd" version="1.1" creator="VisuGPX - https://www.visugpx.com">
  <metadata>
    <name>03 - Pissos - Labouheyre</name>
    <desc><![CDATA[Voie de Tours - Pissos - Labouheyre]]></desc>
  </metadata>
  <trk>
    <name><![CDATA[03 - Pissos - Labouheyre]]></name>
    <trkseg>
      <trkpt lat="44.30857" lon="-0.7779">
        <ele>57</ele>
        <time>2017-01-13T11:21:41Z</time>
      </trkpt>
      <trkpt lat="44.30831" lon="-0.77844">
        <ele>56</ele>
        <time>2017-01-13T11:22:21Z</time>
      </trkpt>
      <trkpt lat="44.30748" lon="-0.77881">
        <ele>56</ele>
        <time>2017-01-13T11:23:01Z</time>
      </trkpt>
      <trkpt lat="44.30593" lon="-0.78125">
        <ele>56</ele>
        <time>2017-01-13T11:23:41Z</time>
      </trkpt>
      <trkpt lat="44.302" lon="-0.78494">
        <ele>62</ele>
        <time>2017-01-13T11:24:21Z</time>
      </trkpt>
      <trkpt lat="44.30063" lon="-0.78563">
        <ele>57</ele>
        <time>2017-01-13T11:25:01Z</time>
      </trkpt>
      <trkpt lat="44.3008" lon="-0.78692">
        <ele>57</ele>
        <time>2017-01-13T11:25:41Z</time>
      </trkpt>
      <trkpt lat="44.29865" lon="-0.79101">
        <ele>67</ele>
        <time>2017-01-13T11:26:21Z</time>
      </trkpt>
      <trkpt lat="44.2961" lon="-0.79541">
        <ele>70</ele>
        <time>2017-01-13T11:27:01Z</time>
      </trkpt>
      <trkpt lat="44.29517" lon="-0.79805">
        <ele>66</ele>
        <time>2017-01-13T11:27:41Z</time>
      </trkpt>
      <trkpt lat="44.2946" lon="-0.79932">
        <ele>65</ele>
        <time>2017-01-13T11:28:21Z</time>
      </trkpt>
      <trkpt lat="44.29389" lon="-0.80129">
        <ele>72</ele>
        <time>2017-01-13T11:29:01Z</time>
      </trkpt>
      <trkpt lat="44.29303" lon="-0.80312">
        <ele>72</ele>
        <time>2017-01-13T11:29:41Z</time>
      </trkpt>
      <trkpt lat="44.29179" lon="-0.80413">
        <ele>70</ele>
        <time>2017-01-13T11:30:21Z</time>
      </trkpt>
      <trkpt lat="44.29087" lon="-0.80569">
        <ele>71</ele>
        <time>2017-01-13T11:31:01Z</time>
      </trkpt>
      <trkpt lat="44.29004" lon="-0.80734">
        <ele>70</ele>
        <time>2017-01-13T11:31:41Z</time>
      </trkpt>
      <trkpt lat="44.28927" lon="-0.80773">
        <ele>68</ele>
        <time>2017-01-13T11:32:21Z</time>
      </trkpt>
      <trkpt lat="44.28801" lon="-0.80985">
        <ele>66</ele>
        <time>2017-01-13T11:33:01Z</time>
      </trkpt>
      <trkpt lat="44.2868" lon="-0.81168">
        <ele>68</ele>
        <time>2017-01-13T11:33:41Z</time>
      </trkpt>
      <trkpt lat="44.28589" lon="-0.81346">
        <ele>71</ele>
        <time>2017-01-13T11:34:21Z</time>
      </trkpt>
      <trkpt lat="44.28497" lon="-0.8146">
        <ele>69</ele>
        <time>2017-01-13T11:35:01Z</time>
      </trkpt>
      <trkpt lat="44.28377" lon="-0.8158">
        <ele>67</ele>
        <time>2017-01-13T11:35:41Z</time>
      </trkpt>
      <trkpt lat="44.28308" lon="-0.81614">
        <ele>67</ele>
        <time>2017-01-13T11:36:21Z</time>
      </trkpt>
      <trkpt lat="44.28274" lon="-0.81539">
        <ele>67</ele>
        <time>2017-01-13T11:37:01Z</time>
      </trkpt>
      <trkpt lat="44.28243" lon="-0.81509">
        <ele>69</ele>
        <time>2017-01-13T11:37:41Z</time>
      </trkpt>
      <trkpt lat="44.28157" lon="-0.81711">
        <ele>67</ele>
        <time>2017-01-13T11:38:21Z</time>
      </trkpt>
      <trkpt lat="44.28085" lon="-0.81784">
        <ele>66</ele>
        <time>2017-01-13T11:39:01Z</time>
      </trkpt>
      <trkpt lat="44.27773" lon="-0.82151">
        <ele>69</ele>
        <time>2017-01-13T11:39:41Z</time>
      </trkpt>
      <trkpt lat="44.27702" lon="-0.82614">
        <ele>70</ele>
        <time>2017-01-13T11:40:21Z</time>
      </trkpt>
      <trkpt lat="44.27652" lon="-0.82863">
        <ele>70</ele>
        <time>2017-01-13T11:41:01Z</time>
      </trkpt>
      <trkpt lat="44.26957" lon="-0.83878">
        <ele>71</ele>
        <time>2017-01-13T11:41:41Z</time>
      </trkpt>
      <trkpt lat="44.26251" lon="-0.84861">
        <ele>68</ele>
        <time>2017-01-13T11:42:21Z</time>
      </trkpt>
      <trkpt lat="44.23877" lon="-0.88142">
        <ele>73</ele>
        <time>2017-01-13T11:43:01Z</time>
      </trkpt>
      <trkpt lat="44.22758" lon="-0.89693">
        <ele>75</ele>
        <time>2017-01-13T11:43:41Z</time>
      </trkpt>
      <trkpt lat="44.22315" lon="-0.90356">
        <ele>76</ele>
        <time>2017-01-13T11:44:21Z</time>
      </trkpt>
      <trkpt lat="44.22062" lon="-0.91261">
        <ele>77</ele>
        <time>2017-01-13T11:45:01Z</time>
      </trkpt>
      <trkpt lat="44.2188" lon="-0.91547">
        <ele>76</ele>
        <time>2017-01-13T11:45:41Z</time>
      </trkpt>
      <trkpt lat="44.21757" lon="-0.91618">
        <ele>72</ele>
        <time>2017-01-13T11:46:21Z</time>
      </trkpt>
      <trkpt lat="44.21712" lon="-0.91965">
        <ele>73</ele>
        <time>2017-01-13T11:47:01Z</time>
      </trkpt>
      <trkpt lat="44.2158" lon="-0.92027">
        <ele>71</ele>
        <time>2017-01-13T11:47:41Z</time>
      </trkpt>
      <trkpt lat="44.21468" lon="-0.9198">
        <ele>70</ele>
        <time>2017-01-13T11:48:21Z</time>
      </trkpt>
      <trkpt lat="44.21468" lon="-0.9198">
        <ele>70</ele>
        <time>2017-01-13T11:48:21Z</time>
      </trkpt>
      <trkpt lat="44.21234" lon="-0.92124">
        <ele>71</ele>
        <time>2017-01-13T11:49:01Z</time>
      </trkpt>
    </trkseg>
  </trk>
</gpx>